sensor_id;sensor_type;location;lat;lon;timestamp;temperature;humidity
51383;DHT22;37475;43.358;1.248;2023-02-13T00:02:15;3.20;92.50
51383;DHT22;37475;43.358;1.248;2023-02-13T00:04:41;3.40;92.70
51383;DHT22;37475;43.358;1.248;2023-02-13T00:07:08;3.40;92.80
51383;DHT22;37475;43.358;1.248;2023-02-13T00:09:36;3.40;92.70
51383;DHT22;37475;43.358;1.248;2023-02-13T00:12:03;3.40;92.90
51383;DHT22;37475;43.358;1.248;2023-02-13T00:14:30;3.40;92.80
51383;DHT22;37475;43.358;1.248;2023-02-13T00:16:58;3.30;92.80
51383;DHT22;37475;43.358;1.248;2023-02-13T00:19:24;3.50;93.10
51383;DHT22;37475;43.358;1.248;2023-02-13T00:21:50;3.50;93.00
51383;DHT22;37475;43.358;1.248;2023-02-13T00:24:16;3.50;92.90
51383;DHT22;37475;43.358;1.248;2023-02-13T00:26:42;3.50;92.80
51383;DHT22;37475;43.358;1.248;2023-02-13T00:29:07;3.40;92.70
51383;DHT22;37475;43.358;1.248;2023-02-13T00:31:33;3.40;92.70
51383;DHT22;37475;43.358;1.248;2023-02-13T00:33:59;3.40;92.60
51383;DHT22;37475;43.358;1.248;2023-02-13T00:36:25;3.40;92.30
51383;DHT22;37475;43.358;1.248;2023-02-13T00:38:52;3.40;92.00
51383;DHT22;37475;43.358;1.248;2023-02-13T00:41:18;3.30;91.50
51383;DHT22;37475;43.358;1.248;2023-02-13T00:43:44;3.30;91.10
51383;DHT22;37475;43.358;1.248;2023-02-13T00:46:10;3.20;90.80
51383;DHT22;37475;43.358;1.248;2023-02-13T00:48:36;3.20;90.40
51383;DHT22;37475;43.358;1.248;2023-02-13T00:51:03;3.10;90.00
51383;DHT22;37475;43.358;1.248;2023-02-13T00:53:30;2.50;90.00
51383;DHT22;37475;43.358;1.248;2023-02-13T00:55:56;2.60;90.60
51383;DHT22;37475;43.358;1.248;2023-02-13T00:58:22;2.40;90.70
51383;DHT22;37475;43.358;1.248;2023-02-13T01:00:49;2.40;90.60
51383;DHT22;37475;43.358;1.248;2023-02-13T01:03:16;2.20;90.60
51383;DHT22;37475;43.358;1.248;2023-02-13T01:05:43;2.20;90.60
51383;DHT22;37475;43.358;1.248;2023-02-13T01:08:11;2.10;90.60
51383;DHT22;37475;43.358;1.248;2023-02-13T01:10:39;1.90;90.70
51383;DHT22;37475;43.358;1.248;2023-02-13T01:13:08;1.70;90.80
51383;DHT22;37475;43.358;1.248;2023-02-13T01:15:34;1.70;90.90
51383;DHT22;37475;43.358;1.248;2023-02-13T01:18:00;1.60;91.20
51383;DHT22;37475;43.358;1.248;2023-02-13T01:20:28;1.50;91.30
51383;DHT22;37475;43.358;1.248;2023-02-13T01:22:55;1.40;91.70
51383;DHT22;37475;43.358;1.248;2023-02-13T01:25:21;1.40;92.00
51383;DHT22;37475;43.358;1.248;2023-02-13T01:27:48;1.20;92.00
51383;DHT22;37475;43.358;1.248;2023-02-13T01:30:17;1.20;91.90
51383;DHT22;37475;43.358;1.248;2023-02-13T01:32:44;1.10;92.00
51383;DHT22;37475;43.358;1.248;2023-02-13T01:35:12;1.10;92.10
51383;DHT22;37475;43.358;1.248;2023-02-13T01:37:39;1.10;92.10
51383;DHT22;37475;43.358;1.248;2023-02-13T01:40:07;1.10;92.00
51383;DHT22;37475;43.358;1.248;2023-02-13T01:42:36;1.00;91.90
51383;DHT22;37475;43.358;1.248;2023-02-13T01:45:04;0.90;91.90
51383;DHT22;37475;43.358;1.248;2023-02-13T01:50:21;0.90;92.00
51383;DHT22;37475;43.358;1.248;2023-02-13T01:55:30;0.90;91.80
51383;DHT22;37475;43.358;1.248;2023-02-13T01:58:10;1.00;91.70
51383;DHT22;37475;43.358;1.248;2023-02-13T02:00:38;0.90;91.30
51383;DHT22;37475;43.358;1.248;2023-02-13T02:03:14;0.90;91.00
51383;DHT22;37475;43.358;1.248;2023-02-13T02:05:42;0.90;90.80
51383;DHT22;37475;43.358;1.248;2023-02-13T02:08:10;0.90;90.60
51383;DHT22;37475;43.358;1.248;2023-02-13T02:10:38;0.80;90.50
51383;DHT22;37475;43.358;1.248;2023-02-13T02:13:11;0.80;90.30
51383;DHT22;37475;43.358;1.248;2023-02-13T02:15:43;0.70;90.00
51383;DHT22;37475;43.358;1.248;2023-02-13T02:18:27;0.70;90.10
51383;DHT22;37475;43.358;1.248;2023-02-13T02:27:14;0.60;89.70
51383;DHT22;37475;43.358;1.248;2023-02-13T02:47:20;0.10;90.70
51383;DHT22;37475;43.358;1.248;2023-02-13T02:58:46;0.10;90.80
51383;DHT22;37475;43.358;1.248;2023-02-13T03:01:35;0.20;90.60
51383;DHT22;37475;43.358;1.248;2023-02-13T03:07:21;0.20;90.00
51383;DHT22;37475;43.358;1.248;2023-02-13T03:09:51;0.20;89.80
51383;DHT22;37475;43.358;1.248;2023-02-13T03:15:40;0.10;89.50
51383;DHT22;37475;43.358;1.248;2023-02-13T03:18:28;0.00;89.20
51383;DHT22;37475;43.358;1.248;2023-02-13T03:21:18;-3276.60;89.70
51383;DHT22;37475;43.358;1.248;2023-02-13T03:27:19;-3276.60;89.80
51383;DHT22;37475;43.358;1.248;2023-02-13T03:40:15;-3276.60;90.30
51383;DHT22;37475;43.358;1.248;2023-02-13T03:42:51;-3276.50;90.60
51383;DHT22;37475;43.358;1.248;2023-02-13T03:45:23;-3276.50;90.70
51383;DHT22;37475;43.358;1.248;2023-02-13T03:48:11;-3276.40;90.70
51383;DHT22;37475;43.358;1.248;2023-02-13T03:51:02;-3276.40;90.90
51383;DHT22;37475;43.358;1.248;2023-02-13T03:53:31;-3276.30;91.00
51383;DHT22;37475;43.358;1.248;2023-02-13T03:56:01;-3276.30;91.10
51383;DHT22;37475;43.358;1.248;2023-02-13T03:58:50;-3276.40;91.10
51383;DHT22;37475;43.358;1.248;2023-02-13T04:01:38;-3276.30;90.80
51383;DHT22;37475;43.358;1.248;2023-02-13T04:04:22;-3276.30;91.10
51383;DHT22;37475;43.358;1.248;2023-02-13T04:07:06;-3276.10;91.00
51383;DHT22;37475;43.358;1.248;2023-02-13T04:09:39;-3276.10;91.30
51383;DHT22;37475;43.358;1.248;2023-02-13T04:12:19;-3276.10;91.60
51383;DHT22;37475;43.358;1.248;2023-02-13T04:14:57;-3276.00;91.80
51383;DHT22;37475;43.358;1.248;2023-02-13T04:17:32;-3276.00;92.00
51383;DHT22;37475;43.358;1.248;2023-02-13T04:20:00;-3276.00;92.20
51383;DHT22;37475;43.358;1.248;2023-02-13T04:22:26;-3275.90;92.30
51383;DHT22;37475;43.358;1.248;2023-02-13T04:24:52;-3275.90;92.70
51383;DHT22;37475;43.358;1.248;2023-02-13T04:27:18;-3275.90;92.90
51383;DHT22;37475;43.358;1.248;2023-02-13T04:29:44;-3275.90;93.00
51383;DHT22;37475;43.358;1.248;2023-02-13T04:32:10;-3276.00;93.00
51383;DHT22;37475;43.358;1.248;2023-02-13T04:34:38;-3276.00;92.90
51383;DHT22;37475;43.358;1.248;2023-02-13T04:37:04;-3275.90;92.70
51383;DHT22;37475;43.358;1.248;2023-02-13T04:39:30;-3275.80;92.80
51383;DHT22;37475;43.358;1.248;2023-02-13T04:41:55;-3276.00;92.80
51383;DHT22;37475;43.358;1.248;2023-02-13T04:44:21;-3275.90;92.70
51383;DHT22;37475;43.358;1.248;2023-02-13T04:46:47;-3276.00;92.70
51383;DHT22;37475;43.358;1.248;2023-02-13T04:49:13;-3276.00;92.40
51383;DHT22;37475;43.358;1.248;2023-02-13T04:51:39;-3275.90;92.30
51383;DHT22;37475;43.358;1.248;2023-02-13T04:54:05;-3275.90;92.00
51383;DHT22;37475;43.358;1.248;2023-02-13T04:56:31;-3275.90;91.90
51383;DHT22;37475;43.358;1.248;2023-02-13T04:58:57;-3275.90;92.00
51383;DHT22;37475;43.358;1.248;2023-02-13T05:01:23;-3275.90;91.90
51383;DHT22;37475;43.358;1.248;2023-02-13T05:03:49;-3276.00;92.00
51383;DHT22;37475;43.358;1.248;2023-02-13T05:06:14;-3275.90;91.90
51383;DHT22;37475;43.358;1.248;2023-02-13T05:08:40;-3275.80;91.90
51383;DHT22;37475;43.358;1.248;2023-02-13T05:11:06;-3275.90;92.00
51383;DHT22;37475;43.358;1.248;2023-02-13T05:13:32;-3275.90;91.80
51383;DHT22;37475;43.358;1.248;2023-02-13T05:15:58;-3275.80;91.90
51383;DHT22;37475;43.358;1.248;2023-02-13T05:18:24;-3275.90;91.80
51383;DHT22;37475;43.358;1.248;2023-02-13T05:20:50;-3275.90;91.60
51383;DHT22;37475;43.358;1.248;2023-02-13T05:23:35;-3275.70;91.60
51383;DHT22;37475;43.358;1.248;2023-02-13T05:26:01;-3275.60;91.80
51383;DHT22;37475;43.358;1.248;2023-02-13T05:28:27;-3275.70;92.00
51383;DHT22;37475;43.358;1.248;2023-02-13T05:31:12;-3275.70;92.10
51383;DHT22;37475;43.358;1.248;2023-02-13T05:33:38;-3275.80;92.00
51383;DHT22;37475;43.358;1.248;2023-02-13T05:36:04;-3275.70;91.80
51383;DHT22;37475;43.358;1.248;2023-02-13T05:38:30;-3275.70;91.90
51383;DHT22;37475;43.358;1.248;2023-02-13T05:40:58;-3275.70;91.90
51383;DHT22;37475;43.358;1.248;2023-02-13T05:43:25;-3275.60;91.70
51383;DHT22;37475;43.358;1.248;2023-02-13T05:46:03;-3275.60;91.50
51383;DHT22;37475;43.358;1.248;2023-02-13T05:48:30;-3275.60;91.50
51383;DHT22;37475;43.358;1.248;2023-02-13T05:50:56;-3275.50;91.20
51383;DHT22;37475;43.358;1.248;2023-02-13T05:53:22;-3275.50;91.40
51383;DHT22;37475;43.358;1.248;2023-02-13T05:55:48;-3275.50;91.20
51383;DHT22;37475;43.358;1.248;2023-02-13T05:58:17;-3275.50;91.40
51383;DHT22;37475;43.358;1.248;2023-02-13T06:00:44;-3275.60;91.40
51383;DHT22;37475;43.358;1.248;2023-02-13T06:03:10;-3275.60;91.10
51383;DHT22;37475;43.358;1.248;2023-02-13T06:05:36;-3275.50;91.20
51383;DHT22;37475;43.358;1.248;2023-02-13T06:08:02;-3275.60;91.10
51383;DHT22;37475;43.358;1.248;2023-02-13T06:10:28;-3275.60;91.00
51383;DHT22;37475;43.358;1.248;2023-02-13T06:12:54;-3275.60;90.70
51383;DHT22;37475;43.358;1.248;2023-02-13T06:15:20;-3275.70;90.60
51383;DHT22;37475;43.358;1.248;2023-02-13T06:17:46;-3275.70;90.40
51383;DHT22;37475;43.358;1.248;2023-02-13T06:20:11;-3275.70;90.20
51383;DHT22;37475;43.358;1.248;2023-02-13T06:22:37;-3275.60;89.90
51383;DHT22;37475;43.358;1.248;2023-02-13T06:25:03;-3275.40;90.20
51383;DHT22;37475;43.358;1.248;2023-02-13T06:27:30;-3275.50;90.50
51383;DHT22;37475;43.358;1.248;2023-02-13T06:29:55;-3275.40;90.40
51383;DHT22;37475;43.358;1.248;2023-02-13T06:32:21;-3275.30;90.40
51383;DHT22;37475;43.358;1.248;2023-02-13T06:34:47;-3275.30;90.40
51383;DHT22;37475;43.358;1.248;2023-02-13T06:37:13;-3275.30;90.50
51383;DHT22;37475;43.358;1.248;2023-02-13T06:39:39;-3275.40;90.40
51383;DHT22;37475;43.358;1.248;2023-02-13T06:42:04;-3275.40;90.20
51383;DHT22;37475;43.358;1.248;2023-02-13T06:44:30;-3275.40;90.00
51383;DHT22;37475;43.358;1.248;2023-02-13T06:46:56;-3275.20;89.90
51383;DHT22;37475;43.358;1.248;2023-02-13T06:49:22;-3275.10;90.30
51383;DHT22;37475;43.358;1.248;2023-02-13T06:51:48;-3275.00;91.00
51383;DHT22;37475;43.358;1.248;2023-02-13T06:54:13;-3275.00;91.40
51383;DHT22;37475;43.358;1.248;2023-02-13T06:56:39;-3275.00;91.80
51383;DHT22;37475;43.358;1.248;2023-02-13T06:59:05;-3275.00;92.00
51383;DHT22;37475;43.358;1.248;2023-02-13T07:01:31;-3275.10;92.10
51383;DHT22;37475;43.358;1.248;2023-02-13T07:03:57;-3275.00;92.10
51383;DHT22;37475;43.358;1.248;2023-02-13T07:06:23;-3275.00;92.10
51383;DHT22;37475;43.358;1.248;2023-02-13T07:08:49;-3274.90;92.10
51383;DHT22;37475;43.358;1.248;2023-02-13T07:11:20;-3275.00;92.30
51383;DHT22;37475;43.358;1.248;2023-02-13T07:13:48;-3275.00;92.40
51383;DHT22;37475;43.358;1.248;2023-02-13T07:16:14;-3274.90;92.60
51383;DHT22;37475;43.358;1.248;2023-02-13T07:18:40;-3274.90;92.70
51383;DHT22;37475;43.358;1.248;2023-02-13T07:21:06;-3275.00;92.70
51383;DHT22;37475;43.358;1.248;2023-02-13T07:23:32;-3275.00;92.70
51383;DHT22;37475;43.358;1.248;2023-02-13T07:25:59;-3275.00;92.70
51383;DHT22;37475;43.358;1.248;2023-02-13T07:28:27;-3275.00;92.70
51383;DHT22;37475;43.358;1.248;2023-02-13T07:30:53;-3275.10;92.70
51383;DHT22;37475;43.358;1.248;2023-02-13T07:33:20;-3275.10;92.70
51383;DHT22;37475;43.358;1.248;2023-02-13T07:35:47;-3275.20;92.60
51383;DHT22;37475;43.358;1.248;2023-02-13T07:38:14;-3275.30;92.50
51383;DHT22;37475;43.358;1.248;2023-02-13T07:40:40;-3275.30;92.40
51383;DHT22;37475;43.358;1.248;2023-02-13T07:43:06;-3275.40;92.30
51383;DHT22;37475;43.358;1.248;2023-02-13T07:45:32;-3275.50;92.10
51383;DHT22;37475;43.358;1.248;2023-02-13T07:47:58;-3275.50;92.00
51383;DHT22;37475;43.358;1.248;2023-02-13T07:50:25;-3275.50;91.90
51383;DHT22;37475;43.358;1.248;2023-02-13T07:52:55;-3275.60;92.10
51383;DHT22;37475;43.358;1.248;2023-02-13T07:55:21;-3275.60;92.20
51383;DHT22;37475;43.358;1.248;2023-02-13T07:57:48;-3275.70;92.30
51383;DHT22;37475;43.358;1.248;2023-02-13T08:00:14;-3275.70;92.40
51383;DHT22;37475;43.358;1.248;2023-02-13T08:02:41;-3275.80;92.40
51383;DHT22;37475;43.358;1.248;2023-02-13T08:05:07;-3275.90;92.40
51383;DHT22;37475;43.358;1.248;2023-02-13T08:07:34;-3275.90;92.40
51383;DHT22;37475;43.358;1.248;2023-02-13T08:10:00;-3276.00;92.50
51383;DHT22;37475;43.358;1.248;2023-02-13T08:12:45;-3276.00;92.50
51383;DHT22;37475;43.358;1.248;2023-02-13T08:15:12;-3276.20;92.50
51383;DHT22;37475;43.358;1.248;2023-02-13T08:17:39;-3276.20;92.40
51383;DHT22;37475;43.358;1.248;2023-02-13T08:20:07;-3276.40;92.30
51383;DHT22;37475;43.358;1.248;2023-02-13T08:22:34;-3276.50;92.30
51383;DHT22;37475;43.358;1.248;2023-02-13T08:25:00;-3276.50;92.20
51383;DHT22;37475;43.358;1.248;2023-02-13T08:27:26;-3276.60;92.20
51383;DHT22;37475;43.358;1.248;2023-02-13T08:29:55;0.00;92.00
51383;DHT22;37475;43.358;1.248;2023-02-13T08:32:22;0.00;91.90
51383;DHT22;37475;43.358;1.248;2023-02-13T08:34:49;0.10;91.70
51383;DHT22;37475;43.358;1.248;2023-02-13T08:37:15;0.20;91.60
51383;DHT22;37475;43.358;1.248;2023-02-13T08:39:41;0.40;91.30
51383;DHT22;37475;43.358;1.248;2023-02-13T08:42:07;0.50;91.10
51383;DHT22;37475;43.358;1.248;2023-02-13T08:44:33;0.70;90.90
51383;DHT22;37475;43.358;1.248;2023-02-13T08:46:59;0.90;90.70
51383;DHT22;37475;43.358;1.248;2023-02-13T08:49:31;1.00;90.50
51383;DHT22;37475;43.358;1.248;2023-02-13T08:51:59;1.10;90.30
51383;DHT22;37475;43.358;1.248;2023-02-13T08:54:25;1.30;90.10
51383;DHT22;37475;43.358;1.248;2023-02-13T08:56:55;1.40;90.00
51383;DHT22;37475;43.358;1.248;2023-02-13T08:59:21;1.60;89.80
51383;DHT22;37475;43.358;1.248;2023-02-13T09:01:47;1.70;89.70
51383;DHT22;37475;43.358;1.248;2023-02-13T09:04:13;1.90;89.50
51383;DHT22;37475;43.358;1.248;2023-02-13T09:06:43;2.10;89.40
51383;DHT22;37475;43.358;1.248;2023-02-13T09:09:09;2.20;89.30
51383;DHT22;37475;43.358;1.248;2023-02-13T09:11:35;2.40;89.30
51383;DHT22;37475;43.358;1.248;2023-02-13T09:14:01;2.60;89.20
51383;DHT22;37475;43.358;1.248;2023-02-13T09:16:27;2.70;89.10
51383;DHT22;37475;43.358;1.248;2023-02-13T09:18:53;2.80;88.90
51383;DHT22;37475;43.358;1.248;2023-02-13T09:21:21;3.00;88.90
51383;DHT22;37475;43.358;1.248;2023-02-13T09:23:48;3.10;88.70
51383;DHT22;37475;43.358;1.248;2023-02-13T09:26:16;3.20;88.50
51383;DHT22;37475;43.358;1.248;2023-02-13T09:28:43;3.40;88.50
51383;DHT22;37475;43.358;1.248;2023-02-13T09:31:14;3.60;88.30
51383;DHT22;37475;43.358;1.248;2023-02-13T09:33:43;3.70;88.10
51383;DHT22;37475;43.358;1.248;2023-02-13T09:36:13;3.90;87.90
51383;DHT22;37475;43.358;1.248;2023-02-13T09:38:41;4.00;87.90
51383;DHT22;37475;43.358;1.248;2023-02-13T09:46:33;4.60;87.60
51383;DHT22;37475;43.358;1.248;2023-02-13T09:49:06;4.90;88.00
51383;DHT22;37475;43.358;1.248;2023-02-13T09:51:36;5.50;88.80
51383;DHT22;37475;43.358;1.248;2023-02-13T09:54:04;5.80;87.90
51383;DHT22;37475;43.358;1.248;2023-02-13T09:56:46;6.30;88.40
51383;DHT22;37475;43.358;1.248;2023-02-13T10:07:58;8.30;82.50
51383;DHT22;37475;43.358;1.248;2023-02-13T10:13:38;9.10;79.70
51383;DHT22;37475;43.358;1.248;2023-02-13T10:16:24;9.30;78.20
51383;DHT22;37475;43.358;1.248;2023-02-13T10:19:02;9.60;75.60
51383;DHT22;37475;43.358;1.248;2023-02-13T10:21:36;9.60;75.10
51383;DHT22;37475;43.358;1.248;2023-02-13T10:24:25;9.80;74.30
51383;DHT22;37475;43.358;1.248;2023-02-13T10:26:56;9.90;74.60
51383;DHT22;37475;43.358;1.248;2023-02-13T10:33:03;10.40;73.10
51383;DHT22;37475;43.358;1.248;2023-02-13T10:35:54;10.70;73.00
51383;DHT22;37475;43.358;1.248;2023-02-13T10:38:32;10.90;71.70
51383;DHT22;37475;43.358;1.248;2023-02-13T10:41:22;11.10;71.00
51383;DHT22;37475;43.358;1.248;2023-02-13T10:47:16;11.10;69.00
51383;DHT22;37475;43.358;1.248;2023-02-13T10:49:59;11.40;69.90
51383;DHT22;37475;43.358;1.248;2023-02-13T11:04:09;12.70;66.20
51383;DHT22;37475;43.358;1.248;2023-02-13T11:06:41;12.70;64.70
51383;DHT22;37475;43.358;1.248;2023-02-13T11:09:25;12.70;64.90
51383;DHT22;37475;43.358;1.248;2023-02-13T11:11:51;13.10;64.00
51383;DHT22;37475;43.358;1.248;2023-02-13T11:14:24;13.30;63.40
51383;DHT22;37475;43.358;1.248;2023-02-13T11:19:46;13.50;61.40
51383;DHT22;37475;43.358;1.248;2023-02-13T11:22:32;13.80;61.30
51383;DHT22;37475;43.358;1.248;2023-02-13T11:27:36;14.10;59.30
51383;DHT22;37475;43.358;1.248;2023-02-13T11:30:29;13.80;59.40
51383;DHT22;37475;43.358;1.248;2023-02-13T11:35:44;14.70;59.10
51383;DHT22;37475;43.358;1.248;2023-02-13T11:40:49;15.10;56.40
51383;DHT22;37475;43.358;1.248;2023-02-13T11:43:26;15.80;55.10
51383;DHT22;37475;43.358;1.248;2023-02-13T11:48:36;15.50;53.00
51383;DHT22;37475;43.358;1.248;2023-02-13T11:51:02;15.60;53.90
51383;DHT22;37475;43.358;1.248;2023-02-13T11:53:31;16.10;53.20
51383;DHT22;37475;43.358;1.248;2023-02-13T11:56:13;16.30;52.60
51383;DHT22;37475;43.358;1.248;2023-02-13T11:58:40;16.50;52.30
51383;DHT22;37475;43.358;1.248;2023-02-13T12:04:03;15.60;52.60
51383;DHT22;37475;43.358;1.248;2023-02-13T12:06:30;16.10;50.80
51383;DHT22;37475;43.358;1.248;2023-02-13T12:09:08;16.40;50.30
51383;DHT22;37475;43.358;1.248;2023-02-13T12:11:44;16.50;50.80
51383;DHT22;37475;43.358;1.248;2023-02-13T12:14:17;16.50;49.20
51383;DHT22;37475;43.358;1.248;2023-02-13T12:17:06;15.90;49.60
51383;DHT22;37475;43.358;1.248;2023-02-13T12:19:41;15.80;51.50
51383;DHT22;37475;43.358;1.248;2023-02-13T12:25:46;16.80;49.10
51383;DHT22;37475;43.358;1.248;2023-02-13T12:28:54;17.10;48.00
51383;DHT22;37475;43.358;1.248;2023-02-13T12:46:36;17.40;48.50
51383;DHT22;37475;43.358;1.248;2023-02-13T12:49:19;17.20;46.30
51383;DHT22;37475;43.358;1.248;2023-02-13T12:54:46;18.60;43.80
51383;DHT22;37475;43.358;1.248;2023-02-13T13:00:41;19.00;43.20
51383;DHT22;37475;43.358;1.248;2023-02-13T13:15:14;19.90;40.00
51383;DHT22;37475;43.358;1.248;2023-02-13T13:28:57;20.50;42.50
51383;DHT22;37475;43.358;1.248;2023-02-13T13:31:26;19.40;43.70
51383;DHT22;37475;43.358;1.248;2023-02-13T13:33:55;19.30;44.10
51383;DHT22;37475;43.358;1.248;2023-02-13T13:39:55;19.70;42.90
51383;DHT22;37475;43.358;1.248;2023-02-13T13:48:30;19.70;42.40
51383;DHT22;37475;43.358;1.248;2023-02-13T13:51:18;19.40;41.80
51383;DHT22;37475;43.358;1.248;2023-02-13T14:07:40;21.10;39.20
51383;DHT22;37475;43.358;1.248;2023-02-13T14:12:47;20.60;38.20
51383;DHT22;37475;43.358;1.248;2023-02-13T14:25:48;19.50;39.40
51383;DHT22;37475;43.358;1.248;2023-02-13T14:28:24;20.10;38.00
51383;DHT22;37475;43.358;1.248;2023-02-13T14:31:03;20.50;37.10
51383;DHT22;37475;43.358;1.248;2023-02-13T14:33:31;20.40;37.40
51383;DHT22;37475;43.358;1.248;2023-02-13T14:36:07;20.80;38.30
51383;DHT22;37475;43.358;1.248;2023-02-13T14:38:41;20.10;38.90
51383;DHT22;37475;43.358;1.248;2023-02-13T14:44:24;20.30;39.20
51383;DHT22;37475;43.358;1.248;2023-02-13T14:46:59;19.10;40.30
51383;DHT22;37475;43.358;1.248;2023-02-13T14:49:31;18.60;42.00
51383;DHT22;37475;43.358;1.248;2023-02-13T14:52:02;19.10;41.30
51383;DHT22;37475;43.358;1.248;2023-02-13T14:54:41;19.10;41.80
51383;DHT22;37475;43.358;1.248;2023-02-13T14:57:20;19.40;41.20
51383;DHT22;37475;43.358;1.248;2023-02-13T14:59:57;19.00;41.70
51383;DHT22;37475;43.358;1.248;2023-02-13T15:02:32;18.10;44.00
51383;DHT22;37475;43.358;1.248;2023-02-13T15:05:05;17.90;44.70
51383;DHT22;37475;43.358;1.248;2023-02-13T15:07:48;17.90;44.80
51383;DHT22;37475;43.358;1.248;2023-02-13T15:13:20;17.70;45.40
51383;DHT22;37475;43.358;1.248;2023-02-13T15:16:16;17.30;45.00
51383;DHT22;37475;43.358;1.248;2023-02-13T15:18:50;17.60;45.50
51383;DHT22;37475;43.358;1.248;2023-02-13T15:21:22;17.60;45.40
51383;DHT22;37475;43.358;1.248;2023-02-13T15:23:57;17.60;45.70
51383;DHT22;37475;43.358;1.248;2023-02-13T15:26:25;17.60;45.90
51383;DHT22;37475;43.358;1.248;2023-02-13T15:29:03;17.60;46.60
51383;DHT22;37475;43.358;1.248;2023-02-13T15:31:42;18.20;45.90
51383;DHT22;37475;43.358;1.248;2023-02-13T15:34:22;17.90;45.50
51383;DHT22;37475;43.358;1.248;2023-02-13T15:36:59;17.60;46.60
51383;DHT22;37475;43.358;1.248;2023-02-13T15:39:28;17.30;47.10
51383;DHT22;37475;43.358;1.248;2023-02-13T15:41:57;18.10;45.50
51383;DHT22;37475;43.358;1.248;2023-02-13T15:44:30;17.60;46.50
51383;DHT22;37475;43.358;1.248;2023-02-13T15:47:25;18.00;46.00
51383;DHT22;37475;43.358;1.248;2023-02-13T15:49:52;17.70;47.20
51383;DHT22;37475;43.358;1.248;2023-02-13T15:52:34;18.30;46.40
51383;DHT22;37475;43.358;1.248;2023-02-13T15:55:02;18.80;45.30
51383;DHT22;37475;43.358;1.248;2023-02-13T15:57:28;19.20;43.90
51383;DHT22;37475;43.358;1.248;2023-02-13T15:59:56;19.10;44.40
51383;DHT22;37475;43.358;1.248;2023-02-13T16:02:45;18.50;45.60
51383;DHT22;37475;43.358;1.248;2023-02-13T16:05:13;18.60;45.70
51383;DHT22;37475;43.358;1.248;2023-02-13T16:07:51;18.60;45.20
51383;DHT22;37475;43.358;1.248;2023-02-13T16:10:33;17.50;48.70
51383;DHT22;37475;43.358;1.248;2023-02-13T16:13:02;17.40;49.10
51383;DHT22;37475;43.358;1.248;2023-02-13T16:15:31;17.30;49.00
51383;DHT22;37475;43.358;1.248;2023-02-13T16:17:59;16.90;50.30
51383;DHT22;37475;43.358;1.248;2023-02-13T16:20:27;16.70;50.30
51383;DHT22;37475;43.358;1.248;2023-02-13T16:25:48;16.30;51.20
51383;DHT22;37475;43.358;1.248;2023-02-13T16:28:20;16.00;51.70
51383;DHT22;37475;43.358;1.248;2023-02-13T16:30:56;16.00;52.00
51383;DHT22;37475;43.358;1.248;2023-02-13T16:33:30;15.10;53.40
51383;DHT22;37475;43.358;1.248;2023-02-13T16:35:58;15.10;54.50
51383;DHT22;37475;43.358;1.248;2023-02-13T16:38:46;15.40;53.70
51383;DHT22;37475;43.358;1.248;2023-02-13T16:43:51;15.20;54.60
51383;DHT22;37475;43.358;1.248;2023-02-13T16:51:28;14.30;57.30
51383;DHT22;37475;43.358;1.248;2023-02-13T16:56:26;14.20;57.10
51383;DHT22;37475;43.358;1.248;2023-02-13T17:04:45;13.90;56.40
51383;DHT22;37475;43.358;1.248;2023-02-13T17:10:19;12.50;60.10
51383;DHT22;37475;43.358;1.248;2023-02-13T17:12:55;12.20;60.70
51383;DHT22;37475;43.358;1.248;2023-02-13T17:15:25;12.10;61.20
51383;DHT22;37475;43.358;1.248;2023-02-13T17:17:53;11.90;61.80
51383;DHT22;37475;43.358;1.248;2023-02-13T17:20:24;11.70;62.20
51383;DHT22;37475;43.358;1.248;2023-02-13T17:22:53;11.60;61.70
51383;DHT22;37475;43.358;1.248;2023-02-13T17:27:52;11.30;64.10
51383;DHT22;37475;43.358;1.248;2023-02-13T17:30:22;11.10;64.50
51383;DHT22;37475;43.358;1.248;2023-02-13T17:32:53;10.90;65.60
51383;DHT22;37475;43.358;1.248;2023-02-13T17:35:30;10.70;66.40
51383;DHT22;37475;43.358;1.248;2023-02-13T17:37:56;10.70;66.40
51383;DHT22;37475;43.358;1.248;2023-02-13T17:40:24;10.50;67.80
51383;DHT22;37475;43.358;1.248;2023-02-13T17:42:54;10.40;68.80
51383;DHT22;37475;43.358;1.248;2023-02-13T17:45:23;10.30;69.10
51383;DHT22;37475;43.358;1.248;2023-02-13T17:47:53;10.10;70.50
51383;DHT22;37475;43.358;1.248;2023-02-13T17:50:22;10.00;70.90
51383;DHT22;37475;43.358;1.248;2023-02-13T17:52:49;10.00;71.60
51383;DHT22;37475;43.358;1.248;2023-02-13T17:55:16;9.90;72.30
51383;DHT22;37475;43.358;1.248;2023-02-13T17:57:46;9.90;73.30
51383;DHT22;37475;43.358;1.248;2023-02-13T18:00:13;9.80;74.30
51383;DHT22;37475;43.358;1.248;2023-02-13T18:02:40;9.60;75.70
51383;DHT22;37475;43.358;1.248;2023-02-13T18:05:07;9.60;76.40
51383;DHT22;37475;43.358;1.248;2023-02-13T18:07:34;9.50;77.00
51383;DHT22;37475;43.358;1.248;2023-02-13T18:10:00;9.60;77.30
51383;DHT22;37475;43.358;1.248;2023-02-13T18:12:26;9.50;77.40
51383;DHT22;37475;43.358;1.248;2023-02-13T18:14:52;9.50;77.70
51383;DHT22;37475;43.358;1.248;2023-02-13T18:17:19;9.40;78.10
51383;DHT22;37475;43.358;1.248;2023-02-13T18:19:46;9.40;78.40
51383;DHT22;37475;43.358;1.248;2023-02-13T18:22:12;9.30;78.60
51383;DHT22;37475;43.358;1.248;2023-02-13T18:24:40;9.20;78.80
51383;DHT22;37475;43.358;1.248;2023-02-13T18:27:07;9.20;79.20
51383;DHT22;37475;43.358;1.248;2023-02-13T18:29:35;9.20;78.90
51383;DHT22;37475;43.358;1.248;2023-02-13T18:32:03;9.10;79.60
51383;DHT22;37475;43.358;1.248;2023-02-13T18:34:30;9.10;79.40
51383;DHT22;37475;43.358;1.248;2023-02-13T18:36:55;9.00;79.70
51383;DHT22;37475;43.358;1.248;2023-02-13T18:39:21;8.90;80.40
51383;DHT22;37475;43.358;1.248;2023-02-13T18:41:47;8.80;80.90
51383;DHT22;37475;43.358;1.248;2023-02-13T18:44:13;8.80;81.50
51383;DHT22;37475;43.358;1.248;2023-02-13T18:46:39;8.80;81.40
51383;DHT22;37475;43.358;1.248;2023-02-13T18:49:05;8.70;81.60
51383;DHT22;37475;43.358;1.248;2023-02-13T18:51:31;8.60;82.10
51383;DHT22;37475;43.358;1.248;2023-02-13T18:53:57;8.60;82.10
51383;DHT22;37475;43.358;1.248;2023-02-13T18:56:24;8.60;82.00
51383;DHT22;37475;43.358;1.248;2023-02-13T18:58:50;8.50;82.90
51383;DHT22;37475;43.358;1.248;2023-02-13T19:01:18;8.50;82.60
51383;DHT22;37475;43.358;1.248;2023-02-13T19:03:46;8.40;82.60
51383;DHT22;37475;43.358;1.248;2023-02-13T19:06:15;8.40;82.60
51383;DHT22;37475;43.358;1.248;2023-02-13T19:08:43;8.40;83.00
51383;DHT22;37475;43.358;1.248;2023-02-13T19:11:12;8.30;83.00
51383;DHT22;37475;43.358;1.248;2023-02-13T19:13:40;8.20;83.00
51383;DHT22;37475;43.358;1.248;2023-02-13T19:16:09;8.20;83.40
51383;DHT22;37475;43.358;1.248;2023-02-13T19:18:43;8.10;83.90
51383;DHT22;37475;43.358;1.248;2023-02-13T19:21:14;8.10;84.20
51383;DHT22;37475;43.358;1.248;2023-02-13T19:23:40;8.00;84.40
51383;DHT22;37475;43.358;1.248;2023-02-13T19:26:15;7.90;84.80
51383;DHT22;37475;43.358;1.248;2023-02-13T19:28:43;7.90;84.70